sensor_id;sensor_type;location;lat;lon;timestamp;temperature;humidity
15115;DHT22;7658;51.456;7.622;2022-09-03T00:05:28;16.40;99.90
15115;DHT22;7658;51.456;7.622;2022-09-03T00:13:41;16.30;99.90
15115;DHT22;7658;51.456;7.622;2022-09-03T00:16:11;16.20;99.90
15115;DHT22;7658;51.456;7.622;2022-09-03T00:18:49;16.20;99.90
15115;DHT22;7658;51.456;7.622;2022-09-03T00:21:31;16.20;99.90
15115;DHT22;7658;51.456;7.622;2022-09-03T00:24:00;16.20;99.90
15115;DHT22;7658;51.456;7.622;2022-09-03T00:26:32;16.20;99.90
15115;DHT22;7658;51.456;7.622;2022-09-03T00:31:49;16.20;99.90
15115;DHT22;7658;51.456;7.622;2022-09-03T00:36:51;16.10;99.90
15115;DHT22;7658;51.456;7.622;2022-09-03T00:39:20;16.00;99.90
15115;DHT22;7658;51.456;7.622;2022-09-03T00:50:03;15.90;99.90
15115;DHT22;7658;51.456;7.622;2022-09-03T00:55:30;15.70;99.90
15115;DHT22;7658;51.456;7.622;2022-09-03T01:00:51;15.70;99.90
15115;DHT22;7658;51.456;7.622;2022-09-03T01:39:45;15.40;99.90
15115;DHT22;7658;51.456;7.622;2022-09-03T01:48:42;15.30;99.90
15115;DHT22;7658;51.456;7.622;2022-09-03T02:00:08;15.20;99.90
15115;DHT22;7658;51.456;7.622;2022-09-03T02:02:13;15.10;99.90
15115;DHT22;7658;51.456;7.622;2022-09-03T02:04:56;15.10;99.90
15115;DHT22;7658;51.456;7.622;2022-09-03T02:07:26;15.10;99.90
15115;DHT22;7658;51.456;7.622;2022-09-03T02:09:54;15.10;99.90
15115;DHT22;7658;51.456;7.622;2022-09-03T02:12:20;15.10;99.90
15115;DHT22;7658;51.456;7.622;2022-09-03T02:14:46;15.10;99.90
15115;DHT22;7658;51.456;7.622;2022-09-03T02:17:12;15.10;99.90
15115;DHT22;7658;51.456;7.622;2022-09-03T02:19:38;15.10;99.90
15115;DHT22;7658;51.456;7.622;2022-09-03T02:22:04;15.10;99.90
15115;DHT22;7658;51.456;7.622;2022-09-03T02:24:31;15.00;99.90
15115;DHT22;7658;51.456;7.622;2022-09-03T02:26:57;15.00;99.90
15115;DHT22;7658;51.456;7.622;2022-09-03T02:29:23;14.90;99.90
15115;DHT22;7658;51.456;7.622;2022-09-03T02:31:50;14.90;99.90
15115;DHT22;7658;51.456;7.622;2022-09-03T02:34:16;14.90;99.90
15115;DHT22;7658;51.456;7.622;2022-09-03T02:36:44;14.80;99.90
15115;DHT22;7658;51.456;7.622;2022-09-03T02:39:12;14.60;99.90
15115;DHT22;7658;51.456;7.622;2022-09-03T02:41:38;14.50;99.90
15115;DHT22;7658;51.456;7.622;2022-09-03T02:44:28;14.50;99.90
15115;DHT22;7658;51.456;7.622;2022-09-03T02:47:00;14.50;99.90
15115;DHT22;7658;51.456;7.622;2022-09-03T02:49:27;14.40;99.90
15115;DHT22;7658;51.456;7.622;2022-09-03T02:51:58;14.30;99.90
15115;DHT22;7658;51.456;7.622;2022-09-03T02:54:26;14.20;99.90
15115;DHT22;7658;51.456;7.622;2022-09-03T02:56:52;14.20;99.90
15115;DHT22;7658;51.456;7.622;2022-09-03T02:59:19;14.10;99.90
15115;DHT22;7658;51.456;7.622;2022-09-03T03:01:47;14.10;99.90
15115;DHT22;7658;51.456;7.622;2022-09-03T03:04:13;14.00;99.90
15115;DHT22;7658;51.456;7.622;2022-09-03T03:06:39;13.90;99.90
15115;DHT22;7658;51.456;7.622;2022-09-03T03:09:05;13.90;99.90
15115;DHT22;7658;51.456;7.622;2022-09-03T03:11:31;13.90;99.90
15115;DHT22;7658;51.456;7.622;2022-09-03T03:13:57;13.90;99.90
15115;DHT22;7658;51.456;7.622;2022-09-03T03:16:23;13.80;99.90
15115;DHT22;7658;51.456;7.622;2022-09-03T03:18:49;13.70;99.90
15115;DHT22;7658;51.456;7.622;2022-09-03T03:21:17;13.70;99.90
15115;DHT22;7658;51.456;7.622;2022-09-03T03:23:43;13.70;99.90
15115;DHT22;7658;51.456;7.622;2022-09-03T03:26:14;13.60;99.90
15115;DHT22;7658;51.456;7.622;2022-09-03T03:28:43;13.60;99.90
15115;DHT22;7658;51.456;7.622;2022-09-03T03:31:11;13.60;99.90
15115;DHT22;7658;51.456;7.622;2022-09-03T03:33:38;13.60;99.90
15115;DHT22;7658;51.456;7.622;2022-09-03T03:36:09;13.60;99.90
15115;DHT22;7658;51.456;7.622;2022-09-03T03:38:36;13.50;99.90
15115;DHT22;7658;51.456;7.622;2022-09-03T03:41:14;13.50;99.90
15115;DHT22;7658;51.456;7.622;2022-09-03T03:43:40;13.30;99.90
15115;DHT22;7658;51.456;7.622;2022-09-03T03:46:06;13.40;99.90
15115;DHT22;7658;51.456;7.622;2022-09-03T03:48:35;13.40;99.90
15115;DHT22;7658;51.456;7.622;2022-09-03T03:51:04;13.30;99.90
15115;DHT22;7658;51.456;7.622;2022-09-03T03:53:34;13.30;99.90
15115;DHT22;7658;51.456;7.622;2022-09-03T03:56:04;13.20;99.90
15115;DHT22;7658;51.456;7.622;2022-09-03T03:58:32;13.20;99.90
15115;DHT22;7658;51.456;7.622;2022-09-03T04:01:14;13.10;99.90
15115;DHT22;7658;51.456;7.622;2022-09-03T04:03:43;13.10;99.90
15115;DHT22;7658;51.456;7.622;2022-09-03T04:06:13;13.10;99.90
15115;DHT22;7658;51.456;7.622;2022-09-03T04:08:41;13.10;99.90
15115;DHT22;7658;51.456;7.622;2022-09-03T04:11:12;13.10;99.90
15115;DHT22;7658;51.456;7.622;2022-09-03T04:13:40;13.00;99.90
15115;DHT22;7658;51.456;7.622;2022-09-03T04:16:09;13.00;99.90
15115;DHT22;7658;51.456;7.622;2022-09-03T04:18:35;13.00;99.90
15115;DHT22;7658;51.456;7.622;2022-09-03T04:21:03;13.00;99.90
15115;DHT22;7658;51.456;7.622;2022-09-03T04:23:35;13.00;99.90
15115;DHT22;7658;51.456;7.622;2022-09-03T04:26:02;13.00;99.90
15115;DHT22;7658;51.456;7.622;2022-09-03T04:28:31;12.90;99.90
15115;DHT22;7658;51.456;7.622;2022-09-03T04:31:09;12.90;99.90
15115;DHT22;7658;51.456;7.622;2022-09-03T04:33:37;12.90;99.90
15115;DHT22;7658;51.456;7.622;2022-09-03T04:38:38;12.80;99.90
15115;DHT22;7658;51.456;7.622;2022-09-03T04:41:10;12.80;99.90
15115;DHT22;7658;51.456;7.622;2022-09-03T04:43:36;12.80;99.90
15115;DHT22;7658;51.456;7.622;2022-09-03T04:46:06;12.80;99.90
15115;DHT22;7658;51.456;7.622;2022-09-03T04:48:35;12.80;99.90
15115;DHT22;7658;51.456;7.622;2022-09-03T04:51:10;12.80;99.90
15115;DHT22;7658;51.456;7.622;2022-09-03T04:53:44;12.80;99.90
15115;DHT22;7658;51.456;7.622;2022-09-03T04:56:17;12.90;99.90
15115;DHT22;7658;51.456;7.622;2022-09-03T04:58:43;12.80;99.90
15115;DHT22;7658;51.456;7.622;2022-09-03T05:01:11;12.80;99.90
15115;DHT22;7658;51.456;7.622;2022-09-03T05:03:40;12.80;99.90
15115;DHT22;7658;51.456;7.622;2022-09-03T05:06:06;12.70;99.90
15115;DHT22;7658;51.456;7.622;2022-09-03T05:08:36;12.70;99.90
15115;DHT22;7658;51.456;7.622;2022-09-03T05:11:11;12.70;99.90
15115;DHT22;7658;51.456;7.622;2022-09-03T05:13:41;12.70;99.90
15115;DHT22;7658;51.456;7.622;2022-09-03T05:16:11;12.70;99.90
15115;DHT22;7658;51.456;7.622;2022-09-03T05:18:37;12.70;99.90
15115;DHT22;7658;51.456;7.622;2022-09-03T05:21:15;12.70;99.90
15115;DHT22;7658;51.456;7.622;2022-09-03T05:23:44;12.70;99.90
15115;DHT22;7658;51.456;7.622;2022-09-03T05:26:13;12.70;99.90
15115;DHT22;7658;51.456;7.622;2022-09-03T05:28:51;12.60;99.90
15115;DHT22;7658;51.456;7.622;2022-09-03T05:31:18;12.70;99.90
15115;DHT22;7658;51.456;7.622;2022-09-03T05:33:48;12.80;99.90
15115;DHT22;7658;51.456;7.622;2022-09-03T05:36:17;12.80;99.90
15115;DHT22;7658;51.456;7.622;2022-09-03T05:38:50;12.90;99.90
15115;DHT22;7658;51.456;7.622;2022-09-03T05:41:21;12.90;99.90
15115;DHT22;7658;51.456;7.622;2022-09-03T05:43:48;12.90;99.90
15115;DHT22;7658;51.456;7.622;2022-09-03T05:46:19;13.00;99.90
15115;DHT22;7658;51.456;7.622;2022-09-03T05:48:46;13.10;99.90
15115;DHT22;7658;51.456;7.622;2022-09-03T05:51:14;13.20;99.90
15115;DHT22;7658;51.456;7.622;2022-09-03T05:53:44;13.30;99.90
15115;DHT22;7658;51.456;7.622;2022-09-03T05:56:13;13.40;99.90
15115;DHT22;7658;51.456;7.622;2022-09-03T05:58:48;13.40;99.90
15115;DHT22;7658;51.456;7.622;2022-09-03T06:01:28;13.50;99.90
15115;DHT22;7658;51.456;7.622;2022-09-03T06:03:57;13.60;99.90
15115;DHT22;7658;51.456;7.622;2022-09-03T06:06:25;13.70;99.90
15115;DHT22;7658;51.456;7.622;2022-09-03T06:09:03;13.80;99.90
15115;DHT22;7658;51.456;7.622;2022-09-03T06:11:31;13.90;99.90
15115;DHT22;7658;51.456;7.622;2022-09-03T06:13:58;14.10;99.90
15115;DHT22;7658;51.456;7.622;2022-09-03T06:16:28;14.20;99.90
15115;DHT22;7658;51.456;7.622;2022-09-03T06:18:54;14.30;99.90
15115;DHT22;7658;51.456;7.622;2022-09-03T06:21:21;14.40;99.90
15115;DHT22;7658;51.456;7.622;2022-09-03T06:23:55;14.60;99.90
15115;DHT22;7658;51.456;7.622;2022-09-03T06:26:24;14.70;99.90
15115;DHT22;7658;51.456;7.622;2022-09-03T06:28:55;14.90;99.90
15115;DHT22;7658;51.456;7.622;2022-09-03T06:31:24;15.00;99.90
15115;DHT22;7658;51.456;7.622;2022-09-03T06:33:54;15.10;99.90
15115;DHT22;7658;51.456;7.622;2022-09-03T06:36:21;15.30;99.90
15115;DHT22;7658;51.456;7.622;2022-09-03T06:38:54;15.40;99.90
15115;DHT22;7658;51.456;7.622;2022-09-03T06:41:23;15.60;99.90
15115;DHT22;7658;51.456;7.622;2022-09-03T06:43:52;15.70;99.90
15115;DHT22;7658;51.456;7.622;2022-09-03T06:46:22;15.80;99.90
15115;DHT22;7658;51.456;7.622;2022-09-03T06:48:50;16.00;99.90
15115;DHT22;7658;51.456;7.622;2022-09-03T06:51:22;16.10;99.90
15115;DHT22;7658;51.456;7.622;2022-09-03T06:53:54;16.30;99.90
15115;DHT22;7658;51.456;7.622;2022-09-03T06:56:23;16.30;99.90
15115;DHT22;7658;51.456;7.622;2022-09-03T06:58:55;16.50;99.90
15115;DHT22;7658;51.456;7.622;2022-09-03T07:01:23;16.60;99.90
15115;DHT22;7658;51.456;7.622;2022-09-03T07:03:55;16.60;99.90
15115;DHT22;7658;51.456;7.622;2022-09-03T07:06:26;16.80;99.90
15115;DHT22;7658;51.456;7.622;2022-09-03T07:08:52;16.90;99.90
15115;DHT22;7658;51.456;7.622;2022-09-03T07:11:30;17.00;99.90
15115;DHT22;7658;51.456;7.622;2022-09-03T07:13:58;17.10;99.90
15115;DHT22;7658;51.456;7.622;2022-09-03T07:16:35;17.20;99.90
15115;DHT22;7658;51.456;7.622;2022-09-03T07:19:03;17.30;99.90
15115;DHT22;7658;51.456;7.622;2022-09-03T07:21:35;17.40;99.90
15115;DHT22;7658;51.456;7.622;2022-09-03T07:24:01;17.50;99.90
15115;DHT22;7658;51.456;7.622;2022-09-03T07:26:34;17.60;99.90
15115;DHT22;7658;51.456;7.622;2022-09-03T07:29:00;17.70;99.90
15115;DHT22;7658;51.456;7.622;2022-09-03T07:31:34;17.80;99.90
15115;DHT22;7658;51.456;7.622;2022-09-03T07:34:06;17.90;99.90
15115;DHT22;7658;51.456;7.622;2022-09-03T07:36:36;18.00;99.90
15115;DHT22;7658;51.456;7.622;2022-09-03T07:39:13;18.20;99.90
15115;DHT22;7658;51.456;7.622;2022-09-03T07:41:40;18.40;99.90
15115;DHT22;7658;51.456;7.622;2022-09-03T07:44:15;18.60;99.90
15115;DHT22;7658;51.456;7.622;2022-09-03T07:46:44;18.70;99.90
15115;DHT22;7658;51.456;7.622;2022-09-03T07:49:12;18.90;99.90
15115;DHT22;7658;51.456;7.622;2022-09-03T07:51:38;19.00;99.90
15115;DHT22;7658;51.456;7.622;2022-09-03T07:54:06;19.00;99.90
15115;DHT22;7658;51.456;7.622;2022-09-03T07:56:33;19.00;99.90
15115;DHT22;7658;51.456;7.622;2022-09-03T07:59:03;19.00;99.90
15115;DHT22;7658;51.456;7.622;2022-09-03T08:01:29;19.10;99.90
15115;DHT22;7658;51.456;7.622;2022-09-03T08:03:57;19.10;99.90
15115;DHT22;7658;51.456;7.622;2022-09-03T08:06:25;19.10;99.90
15115;DHT22;7658;51.456;7.622;2022-09-03T08:08:59;19.20;99.90
15115;DHT22;7658;51.456;7.622;2022-09-03T08:11:27;19.30;99.90
15115;DHT22;7658;51.456;7.622;2022-09-03T08:14:02;19.40;99.90
15115;DHT22;7658;51.456;7.622;2022-09-03T08:16:39;19.50;99.90
15115;DHT22;7658;51.456;7.622;2022-09-03T08:19:06;19.60;99.90
15115;DHT22;7658;51.456;7.622;2022-09-03T08:21:33;19.60;99.90
15115;DHT22;7658;51.456;7.622;2022-09-03T08:23:59;19.70;99.90
15115;DHT22;7658;51.456;7.622;2022-09-03T08:26:33;19.70;99.90
15115;DHT22;7658;51.456;7.622;2022-09-03T08:28:59;19.70;99.90
15115;DHT22;7658;51.456;7.622;2022-09-03T08:31:26;19.70;99.90
15115;DHT22;7658;51.456;7.622;2022-09-03T08:33:54;19.70;99.90
15115;DHT22;7658;51.456;7.622;2022-09-03T08:36:22;19.70;99.90
15115;DHT22;7658;51.456;7.622;2022-09-03T08:38:50;19.70;99.90
15115;DHT22;7658;51.456;7.622;2022-09-03T08:44:29;19.80;99.90
15115;DHT22;7658;51.456;7.622;2022-09-03T08:46:59;19.90;99.90
15115;DHT22;7658;51.456;7.622;2022-09-03T08:49:28;20.00;99.90
15115;DHT22;7658;51.456;7.622;2022-09-03T08:52:00;20.30;99.90
15115;DHT22;7658;51.456;7.622;2022-09-03T08:54:29;20.40;99.90
15115;DHT22;7658;51.456;7.622;2022-09-03T08:57:00;20.50;99.90
15115;DHT22;7658;51.456;7.622;2022-09-03T08:59:28;20.80;99.90
15115;DHT22;7658;51.456;7.622;2022-09-03T09:07:40;21.70;99.90
15115;DHT22;7658;51.456;7.622;2022-09-03T09:10:14;22.00;99.90
15115;DHT22;7658;51.456;7.622;2022-09-03T09:13:00;22.10;99.90
15115;DHT22;7658;51.456;7.622;2022-09-03T09:20:59;22.40;99.90
15115;DHT22;7658;51.456;7.622;2022-09-03T09:23:36;22.50;99.90
15115;DHT22;7658;51.456;7.622;2022-09-03T09:26:09;22.50;99.90
15115;DHT22;7658;51.456;7.622;2022-09-03T09:28:37;22.70;99.90
15115;DHT22;7658;51.456;7.622;2022-09-03T09:31:06;22.80;99.90
15115;DHT22;7658;51.456;7.622;2022-09-03T09:33:33;22.90;99.90
15115;DHT22;7658;51.456;7.622;2022-09-03T09:36:05;23.00;99.90
15115;DHT22;7658;51.456;7.622;2022-09-03T09:38:35;23.10;99.90
15115;DHT22;7658;51.456;7.622;2022-09-03T09:41:15;23.20;99.90
15115;DHT22;7658;51.456;7.622;2022-09-03T09:43:43;23.30;99.90
15115;DHT22;7658;51.456;7.622;2022-09-03T09:46:14;23.40;99.90
15115;DHT22;7658;51.456;7.622;2022-09-03T09:48:52;23.40;99.90
15115;DHT22;7658;51.456;7.622;2022-09-03T09:53:47;23.50;99.90
15115;DHT22;7658;51.456;7.622;2022-09-03T09:56:21;23.50;99.90
15115;DHT22;7658;51.456;7.622;2022-09-03T09:58:47;23.40;99.90
15115;DHT22;7658;51.456;7.622;2022-09-03T10:01:22;23.50;99.90
15115;DHT22;7658;51.456;7.622;2022-09-03T10:03:56;23.50;99.90
15115;DHT22;7658;51.456;7.622;2022-09-03T10:06:32;23.60;99.90
15115;DHT22;7658;51.456;7.622;2022-09-03T10:09:21;23.70;99.90
15115;DHT22;7658;51.456;7.622;2022-09-03T10:12:13;23.80;99.90
15115;DHT22;7658;51.456;7.622;2022-09-03T10:15:13;23.80;99.90
15115;DHT22;7658;51.456;7.622;2022-09-03T10:17:49;23.90;99.90
15115;DHT22;7658;51.456;7.622;2022-09-03T10:20:25;24.00;99.90
15115;DHT22;7658;51.456;7.622;2022-09-03T10:25:37;24.10;99.90
15115;DHT22;7658;51.456;7.622;2022-09-03T10:28:07;24.20;99.90
15115;DHT22;7658;51.456;7.622;2022-09-03T10:30:41;24.20;99.90
15115;DHT22;7658;51.456;7.622;2022-09-03T10:33:21;24.00;99.90
15115;DHT22;7658;51.456;7.622;2022-09-03T10:35:56;23.90;99.90
15115;DHT22;7658;51.456;7.622;2022-09-03T10:38:28;23.70;99.90
15115;DHT22;7658;51.456;7.622;2022-09-03T10:46:21;23.60;99.90
15115;DHT22;7658;51.456;7.622;2022-09-03T10:49:15;23.80;99.90
15115;DHT22;7658;51.456;7.622;2022-09-03T10:51:53;23.80;99.90
15115;DHT22;7658;51.456;7.622;2022-09-03T10:57:07;24.10;99.90
15115;DHT22;7658;51.456;7.622;2022-09-03T11:05:05;24.80;99.90
15115;DHT22;7658;51.456;7.622;2022-09-03T11:07:48;25.00;99.90
15115;DHT22;7658;51.456;7.622;2022-09-03T11:10:27;25.00;99.90
15115;DHT22;7658;51.456;7.622;2022-09-03T11:13:05;24.90;99.90
15115;DHT22;7658;51.456;7.622;2022-09-03T11:15:37;24.80;99.90
15115;DHT22;7658;51.456;7.622;2022-09-03T11:21:03;24.60;99.90
15115;DHT22;7658;51.456;7.622;2022-09-03T11:23:33;24.60;99.90
15115;DHT22;7658;51.456;7.622;2022-09-03T11:26:06;24.60;99.90
15115;DHT22;7658;51.456;7.622;2022-09-03T11:28:42;24.60;99.90
15115;DHT22;7658;51.456;7.622;2022-09-03T11:34:13;24.80;99.90
15115;DHT22;7658;51.456;7.622;2022-09-03T11:36:40;25.00;99.90
15115;DHT22;7658;51.456;7.622;2022-09-03T11:39:37;25.10;99.90
15115;DHT22;7658;51.456;7.622;2022-09-03T11:42:09;25.10;99.90
15115;DHT22;7658;51.456;7.622;2022-09-03T11:44:42;25.30;99.90
15115;DHT22;7658;51.456;7.622;2022-09-03T11:49:50;25.40;99.90
15115;DHT22;7658;51.456;7.622;2022-09-03T11:52:30;25.40;99.90
15115;DHT22;7658;51.456;7.622;2022-09-03T11:54:57;25.40;99.90
15115;DHT22;7658;51.456;7.622;2022-09-03T11:57:30;25.30;99.90
15115;DHT22;7658;51.456;7.622;2022-09-03T12:00:12;25.00;99.90
15115;DHT22;7658;51.456;7.622;2022-09-03T12:03:01;25.00;99.90
15115;DHT22;7658;51.456;7.622;2022-09-03T12:06:07;24.80;99.90
15115;DHT22;7658;51.456;7.622;2022-09-03T12:08:47;24.60;99.90
15115;DHT22;7658;51.456;7.622;2022-09-03T12:14:26;24.70;99.90
15115;DHT22;7658;51.456;7.622;2022-09-03T12:17:07;24.80;99.90
15115;DHT22;7658;51.456;7.622;2022-09-03T12:22:17;25.40;99.90
15115;DHT22;7658;51.456;7.622;2022-09-03T12:24:43;25.40;99.90
15115;DHT22;7658;51.456;7.622;2022-09-03T12:27:32;25.40;99.90
15115;DHT22;7658;51.456;7.622;2022-09-03T12:30:00;25.30;99.90
15115;DHT22;7658;51.456;7.622;2022-09-03T12:32:34;25.40;99.90
15115;DHT22;7658;51.456;7.622;2022-09-03T12:37:37;25.80;99.90
15115;DHT22;7658;51.456;7.622;2022-09-03T12:40:04;25.80;99.90
15115;DHT22;7658;51.456;7.622;2022-09-03T12:42:30;25.60;99.90
15115;DHT22;7658;51.456;7.622;2022-09-03T12:45:07;25.40;99.90
15115;DHT22;7658;51.456;7.622;2022-09-03T12:47:38;25.20;99.90
15115;DHT22;7658;51.456;7.622;2022-09-03T12:50:15;25.00;99.90
15115;DHT22;7658;51.456;7.622;2022-09-03T12:52:49;24.80;99.90
15115;DHT22;7658;51.456;7.622;2022-09-03T13:03:26;24.70;99.90
15115;DHT22;7658;51.456;7.622;2022-09-03T13:06:02;25.10;99.90
15115;DHT22;7658;51.456;7.622;2022-09-03T13:08:43;25.70;99.90
15115;DHT22;7658;51.456;7.622;2022-09-03T13:11:09;26.30;99.90
15115;DHT22;7658;51.456;7.622;2022-09-03T13:13:35;26.50;99.90
15115;DHT22;7658;51.456;7.622;2022-09-03T13:29:44;26.40;99.90
15115;DHT22;7658;51.456;7.622;2022-09-03T13:44:09;25.10;99.90
15115;DHT22;7658;51.456;7.622;2022-09-03T13:46:54;24.80;99.90
15115;DHT22;7658;51.456;7.622;2022-09-03T13:52:26;25.20;99.90
15115;DHT22;7658;51.456;7.622;2022-09-03T13:55:00;25.90;99.90
15115;DHT22;7658;51.456;7.622;2022-09-03T14:00:53;27.50;99.90
15115;DHT22;7658;51.456;7.622;2022-09-03T14:03:34;28.10;99.90
15115;DHT22;7658;51.456;7.622;2022-09-03T14:09:05;29.20;99.90
15115;DHT22;7658;51.456;7.622;2022-09-03T14:17:58;28.30;99.90
15115;DHT22;7658;51.456;7.622;2022-09-03T14:20:32;27.90;99.90
15115;DHT22;7658;51.456;7.622;2022-09-03T14:23:06;27.70;99.90
15115;DHT22;7658;51.456;7.622;2022-09-03T14:25:35;27.30;99.90
15115;DHT22;7658;51.456;7.622;2022-09-03T14:31:23;26.70;99.90
15115;DHT22;7658;51.456;7.622;2022-09-03T14:52:11;25.40;99.90
15115;DHT22;7658;51.456;7.622;2022-09-03T15:09:14;25.40;99.90
15115;DHT22;7658;51.456;7.622;2022-09-03T15:14:45;25.20;99.90
15115;DHT22;7658;51.456;7.622;2022-09-03T15:17:39;25.10;99.90
15115;DHT22;7658;51.456;7.622;2022-09-03T15:29:29;25.20;99.90
15115;DHT22;7658;51.456;7.622;2022-09-03T15:37:56;24.90;99.90
15115;DHT22;7658;51.456;7.622;2022-09-03T15:40:30;24.80;99.90
15115;DHT22;7658;51.456;7.622;2022-09-03T15:43:10;24.70;99.90
15115;DHT22;7658;51.456;7.622;2022-09-03T15:48:50;24.60;99.90
15115;DHT22;7658;51.456;7.622;2022-09-03T15:54:44;24.50;99.90
15115;DHT22;7658;51.456;7.622;2022-09-03T15:57:34;24.60;99.90
15115;DHT22;7658;51.456;7.622;2022-09-03T16:00:20;24.50;99.90
15115;DHT22;7658;51.456;7.622;2022-09-03T16:03:10;24.50;99.90
15115;DHT22;7658;51.456;7.622;2022-09-03T16:11:38;24.40;99.90
15115;DHT22;7658;51.456;7.622;2022-09-03T16:14:29;24.30;99.90
15115;DHT22;7658;51.456;7.622;2022-09-03T16:17:14;24.30;99.90
15115;DHT22;7658;51.456;7.622;2022-09-03T16:19:54;24.20;99.90
15115;DHT22;7658;51.456;7.622;2022-09-03T16:22:26;24.20;99.90
15115;DHT22;7658;51.456;7.622;2022-09-03T16:35:15;24.00;99.90
15115;DHT22;7658;51.456;7.622;2022-09-03T16:40:40;23.90;99.90
15115;DHT22;7658;51.456;7.622;2022-09-03T16:43:11;23.80;99.90
15115;DHT22;7658;51.456;7.622;2022-09-03T16:45:56;23.80;99.90
15115;DHT22;7658;51.456;7.622;2022-09-03T16:57:01;23.60;99.90
15115;DHT22;7658;51.456;7.622;2022-09-03T16:59:46;23.50;99.90
15115;DHT22;7658;51.456;7.622;2022-09-03T17:05:50;23.40;99.90
15115;DHT22;7658;51.456;7.622;2022-09-03T17:21:48;22.90;99.90
15115;DHT22;7658;51.456;7.622;2022-09-03T17:24:30;22.90;99.90
15115;DHT22;7658;51.456;7.622;2022-09-03T17:27:25;22.80;99.90
15115;DHT22;7658;51.456;7.622;2022-09-03T17:41:47;22.50;99.90
15115;DHT22;7658;51.456;7.622;2022-09-03T17:50:23;22.30;99.90
15115;DHT22;7658;51.456;7.622;2022-09-03T17:52:54;22.20;99.90
15115;DHT22;7658;51.456;7.622;2022-09-03T17:55:37;22.20;99.90
15115;DHT22;7658;51.456;7.622;2022-09-03T17:58:13;22.10;99.90
15115;DHT22;7658;51.456;7.622;2022-09-03T18:03:54;22.00;99.90
15115;DHT22;7658;51.456;7.622;2022-09-03T18:09:05;21.90;99.90
15115;DHT22;7658;51.456;7.622;2022-09-03T18:11:36;21.80;99.90
15115;DHT22;7658;51.456;7.622;2022-09-03T18:14:27;21.80;99.90
15115;DHT22;7658;51.456;7.622;2022-09-03T18:20:11;21.70;99.90
15115;DHT22;7658;51.456;7.622;2022-09-03T18:23:00;21.70;99.90
15115;DHT22;7658;51.456;7.622;2022-09-03T18:25:49;21.60;99.90
15115;DHT22;7658;51.456;7.622;2022-09-03T18:28:39;21.60;99.90
15115;DHT22;7658;51.456;7.622;2022-09-03T18:31:25;21.60;99.90
15115;DHT22;7658;51.456;7.622;2022-09-03T18:34:10;21.50;99.90
15115;DHT22;7658;51.456;7.622;2022-09-03T18:36:58;21.50;99.90
15115;DHT22;7658;51.456;7.622;2022-09-03T18:39:46;21.50;99.90
15115;DHT22;7658;51.456;7.622;2022-09-03T18:45:50;21.50;99.90
15115;DHT22;7658;51.456;7.622;2022-09-03T18:57:28;21.50;99.90
15115;DHT22;7658;51.456;7.622;2022-09-03T19:00:15;21.50;99.90
15115;DHT22;7658;51.456;7.622;2022-09-03T19:09:03;21.40;99.90
15115;DHT22;7658;51.456;7.622;2022-09-03T19:12:08;21.40;99.90
15115;DHT22;7658;51.456;7.622;2022-09-03T19:15:33;21.40;99.90
15115;DHT22;7658;51.456;7.622;2022-09-03T19:24:20;21.30;99.90
15115;DHT22;7658;51.456;7.622;2022-09-03T19:27:13;21.20;99.90
15115;DHT22;7658;51.456;7.622;2022-09-03T19:33:01;21.10;99.90
15115;DHT22;7658;51.456;7.622;2022-09-03T19:42:47;21.00;99.90
15115;DHT22;7658;51.456;7.622;2022-09-03T19:48:46;20.90;99.90
15115;DHT22;7658;51.456;7.622;2022-09-03T19:51:55;20.80;99.90
15115;DHT22;7658;51.456;7.622;2022-09-03T19:54:41;20.80;99.90
15115;DHT22;7658;51.456;7.622;2022-09-03T19:57:26;20.80;99.90
15115;DHT22;7658;51.456;7.622;2022-09-03T20:00:12;20.70;99.90
15115;DHT22;7658;51.456;7.622;2022-09-03T20:02:57;20.70;99.90
15115;DHT22;7658;51.456;7.622;2022-09-03T20:05:42;20.60;99.90
15115;DHT22;7658;51.456;7.622;2022-09-03T20:08:27;20.50;99.90
15115;DHT22;7658;51.456;7.622;2022-09-03T20:11:19;20.40;99.90
15115;DHT22;7658;51.456;7.622;2022-09-03T20:13:45;20.40;99.90
15115;DHT22;7658;51.456;7.622;2022-09-03T20:16:51;20.30;99.90
15115;DHT22;7658;51.456;7.622;2022-09-03T20:19:45;20.20;99.90
15115;DHT22;7658;51.456;7.622;2022-09-03T20:22:36;20.10;99.90
15115;DHT22;7658;51.456;7.622;2022-09-03T20:25:59;20.00;99.90
15115;DHT22;7658;51.456;7.622;2022-09-03T20:31:31;19.80;99.90
15115;DHT22;7658;51.456;7.622;2022-09-03T20:45:21;19.50;99.90
15115;DHT22;7658;51.456;7.622;2022-09-03T20:48:09;19.40;99.90
15115;DHT22;7658;51.456;7.622;2022-09-03T20:56:50;19.30;99.90
15115;DHT22;7658;51.456;7.622;2022-09-03T21:05:23;19.00;99.90
15115;DHT22;7658;51.456;7.622;2022-09-03T21:10:46;18.90;99.90
15115;DHT22;7658;51.456;7.622;2022-09-03T21:13:33;18.80;99.90
15115;DHT22;7658;51.456;7.622;2022-09-03T21:18:58;18.60;99.90
15115;DHT22;7658;51.456;7.622;2022-09-03T21:30:24;18.50;99.90
15115;DHT22;7658;51.456;7.622;2022-09-03T21:35:43;18.40;99.90
15115;DHT22;7658;51.456;7.622;2022-09-03T21:38:17;18.40;99.90
15115;DHT22;7658;51.456;7.622;2022-09-03T21:43:41;18.30;99.90
15115;DHT22;7658;51.456;7.622;2022-09-03T21:46:26;18.20;99.90
15115;DHT22;7658;51.456;7.622;2022-09-03T21:49:05;18.20;99.90
15115;DHT22;7658;51.456;7.622;2022-09-03T21:54:24;18.00;99.90
15115;DHT22;7658;51.456;7.622;2022-09-03T22:02:11;17.70;99.90
15115;DHT22;7658;51.456;7.622;2022-09-03T22:04:41;17.70;99.90
15115;DHT22;7658;51.456;7.622;2022-09-03T22:15:44;17.70;99.90
15115;DHT22;7658;51.456;7.622;2022-09-03T22:18:21;17.70;99.90
15115;DHT22;7658;51.456;7.622;2022-09-03T22:24:02;17.60;99.90
15115;DHT22;7658;51.456;7.622;2022-09-03T22:26:41;17.60;99.90
15115;DHT22;7658;51.456;7.622;2022-09-03T22:35:12;17.50;99.90
15115;DHT22;7658;51.456;7.622;2022-09-03T22:40:47;17.50;99.90
15115;DHT22;7658;51.456;7.622;2022-09-03T22:43:39;17.50;99.90
15115;DHT22;7658;51.456;7.622;2022-09-03T22:46:15;17.40;99.90
15115;DHT22;7658;51.456;7.622;2022-09-03T22:51:19;17.30;99.90
15115;DHT22;7658;51.456;7.622;2022-09-03T22:56:20;17.20;99.90
15115;DHT22;7658;51.456;7.622;2022-09-03T22:59:03;17.10;99.90
15115;DHT22;7658;51.456;7.622;2022-09-03T23:07:02;17.00;99.90
15115;DHT22;7658;51.456;7.622;2022-09-03T23:09:37;17.00;99.90
15115;DHT22;7658;51.456;7.622;2022-09-03T23:12:09;17.00;99.90
15115;DHT22;7658;51.456;7.622;2022-09-03T23:14:45;17.00;99.90
15115;DHT22;7658;51.456;7.622;2022-09-03T23:17:29;16.90;99.90
15115;DHT22;7658;51.456;7.622;2022-09-03T23:22:57;16.80;99.90
15115;DHT22;7658;51.456;7.622;2022-09-03T23:25:34;16.80;99.90
15115;DHT22;7658;51.456;7.622;2022-09-03T23:28:26;16.70;99.90
15115;DHT22;7658;51.456;7.622;2022-09-03T23:30:58;16.60;99.90
15115;DHT22;7658;51.456;7.622;2022-09-03T23:33:27;16.60;99.90
15115;DHT22;7658;51.456;7.622;2022-09-03T23:36:01;16.60;99.90
15115;DHT22;7658;51.456;7.622;2022-09-03T23:41:01;16.50;99.90
15115;DHT22;7658;51.456;7.622;2022-09-03T23:44:25;16.50;99.90
15115;DHT22;7658;51.456;7.622;2022-09-03T23:46:52;16.40;99.90
15115;DHT22;7658;51.456;7.622;2022-09-03T23:49:31;16.40;99.90
15115;DHT22;7658;51.456;7.622;2022-09-03T23:52:26;16.40;99.90